• Join FlightAware (Why Join?)
  • Login
  • US Flag 
11:48PM EDT


 

Airport Tracker/Info


-or-


 

Live Flight TrackerFlight Track Log ✈ N606FT ✈ 31-Aug-2013 ✈ KMLB - KOBE

Flight Track Log - Related Links

Times and Time Zones

All times are in EDT time to prevent confusion due to time zone crossing. See the N606FT flight status page for this flight to view local times or setup timezone preferences in your user account.

Time Position Orientation Groundspeed Altitude Reporting Facility
EDT Latitude Longitude Course Direction KTS MPH feet Rate Location/Type
08:28AM 28.1167 -80.7833 180° South 81 93 3,500  Level Orlando TRACON
08:29AM 28.0833 -80.7833 180° South 90 104 3,500  Level Orlando TRACON
08:30AM 28.0667 -80.7833 180° South 85 98 3,500  Level Orlando TRACON
08:31AM 28.0500 -80.7833 180° South 85 98 3,500  Level Orlando TRACON
08:32AM 28.0167 -80.7833 180° South 82 94 3,500  Level Orlando TRACON
08:34AM 27.9781 -80.7736 167° South 88 101 3,500  Level Miami Center
08:35AM 27.9592 -80.7731 179° South 88 101 3,500  Level Miami Center
08:36AM 27.9322 -80.7722 178° South 88 101 3,500  Level Miami Center
08:37AM 27.9114 -80.7692 173° South 88 101 3,500  Level Miami Center
08:38AM 27.8803 -80.7656 174° South 83 96 3,500  Level Miami Center
08:39AM 27.8575 -80.7603 168° South 83 96 3,500  Level Miami Center
08:40AM 27.8367 -80.7572 173° South 83 96 3,500  Level Miami Center
08:41AM 27.8136 -80.7539 173° South 88 101 3,600  Climbing Miami Center
08:42AM 27.7867 -80.7483 170° South 83 96 3,500 -60 Descending Miami Center
08:43AM 27.7619 -80.7406 164° South 88 101 3,500  Level Miami Center
08:44AM 27.7411 -80.7350 167° South 88 101 3,500  Level Miami Center
08:45AM 27.7161 -80.7342 178° South 88 101 3,500 -60 Level Miami Center
08:46AM 27.6892 -80.7333 178° South 88 101 3,400  Descending Miami Center
08:47AM 27.6661 -80.7303 173° South 88 101 3,500  Climbing Miami Center
08:48AM 27.6389 -80.7317 183° South 88 101 3,500  Level Miami Center
08:49AM 27.6181 -80.7308 178° South 88 101 3,500  Level Miami Center
08:50AM 27.5931 -80.7325 183° South 88 101 3,500  Level Miami Center
08:51AM 27.5658 -80.7386 191° South 88 101 3,500 -180 Level Miami Center
08:52AM 27.5406 -80.7469 196° South 88 101 3,200 -540 Descending Miami Center
08:53AM 27.5175 -80.7486 184° South 88 101 2,500 -420 Descending Miami Center
08:54AM 27.4964 -80.7550 195° South 88 101 2,400  Descending Miami Center
08:55AM 27.4714 -80.7542 178° South 88 101 2,500  Climbing Miami Center
08:56AM 27.4442 -80.7556 183° South 88 101 2,400 -60 Descending Miami Center
08:57AM 27.4211 -80.7594 189° South 88 101 2,400 -60 Level Miami Center
10:05AM 26.9722 -80.6067 163° South 115 132 1,600 -60 Descending Miami Center
10:06AM 27.0014 -80.6078 358° North 102 117 1,700  Climbing Miami Center
10:07AM 27.0306 -80.6064 North 102 117 1,600  Descending Miami Center
10:08AM 27.0597 -80.6097 354° North 102 117 1,700 60 Climbing Miami Center
10:09AM 27.0844 -80.6175 344° North 102 117 1,800  Climbing Miami Center
10:10AM 27.1136 -80.6231 350° North 102 117 1,800 -60 Level Miami Center
10:11AM 27.1447 -80.6333 344° North 102 117 1,700 -180 Descending Miami Center
10:12AM 27.1694 -80.6481 332° Northwest 107 123 1,500 -240 Descending Miami Center
10:13AM 27.1917 -80.6700 319° Northwest 107 123 1,300 -180 Descending Miami Center
10:14AM 27.2144 -80.6822 334° Northwest 107 123 1,200 -60 Descending Miami Center
10:15AM 27.2456 -80.6903 347° North 95 109 1,200 60 Level Miami Center
10:16AM 27.2725 -80.6983 345° North 95 109 1,400 60 Climbing Miami Center
10:17AM 27.2994 -80.7086 341° North 100 115 1,400  Level Miami Center
10:18AM 27.3264 -80.7069 North 105 121 1,500 -60 Climbing Miami Center
10:19AM 27.3600 -80.7083 358° North 105 121 1,300 -120 Descending Miami Center
10:20AM 27.3892 -80.7092 359° North 100 115 1,300 60 Level Miami Center
10:21AM 27.4183 -80.7078 North 100 115 1,500 300 Climbing Miami Center
10:22AM 27.4433 -80.7064 North 100 115 1,900 420 Climbing Miami Center
10:23AM 27.4664 -80.7047 North 100 115 2,400 600 Climbing Miami Center
10:24AM 27.4958 -80.7011 North 95 109 3,200 600 Climbing Miami Center
10:25AM 27.5228 -80.7042 354° North 95 109 3,600 180 Climbing Miami Center
10:26AM 27.5542 -80.7031 North 101 116 3,600  Level Miami Center
10:27AM 27.5814 -80.7039 358° North 101 116 3,600  Level Miami Center
10:28AM 27.6125 -80.7072 355° North 101 116 3,600  Level Miami Center
10:29AM 27.6458 -80.7108 355° North 101 116 3,600  Level Miami Center
10:30AM 27.6750 -80.7164 350° North 101 116 3,600  Level Miami Center
10:31AM 27.7333 -80.7333 346° North 105 121 3,600 -60 Level Orlando TRACON
10:32AM 27.7500 -80.7333 360° North 102 117 3,500 -60 Descending Orlando TRACON
10:34AM 27.7833 -80.7333 360° North 105 121 3,500 -60 Level Orlando TRACON
10:35AM 27.8167 -80.7333 360° North 109 125 3,400  Descending Orlando TRACON
10:35AM 27.8500 -80.7333 360° North 105 121 3,500 60 Climbing Orlando TRACON
10:36AM 27.8667 -80.7333 360° North 105 121 3,600  Climbing Orlando TRACON
10:37AM 27.9000 -80.7333 360° North 108 124 3,600 -60 Level Orlando TRACON
10:38AM 27.9333 -80.7333 360° North 111 128 3,500 -60 Descending Orlando TRACON
10:39AM 27.9667 -80.7500 336° Northwest 106 122 3,500  Level Orlando TRACON
10:40AM 27.9833 -80.7500 360° North 101 116 3,500  Level Orlando TRACON
10:42AM 28.0167 -80.7500 360° North 108 124 3,600  Climbing Orlando TRACON
10:43AM 28.0500 -80.7500 360° North 111 128 3,500 -60 Descending Orlando TRACON
10:44AM 28.0833 -80.7500 360° North 109 125 3,500  Level Orlando TRACON